createdAt,value
2023-03-20T00:02:07.055Z,10
2023-03-20T00:03:50.418Z,10
2023-03-20T00:05:33.825Z,9
2023-03-20T00:07:17.334Z,10
2023-03-20T00:09:00.642Z,9
2023-03-20T00:10:44.004Z,5
2023-03-20T00:12:27.420Z,1
2023-03-20T00:14:10.832Z,2
2023-03-20T00:17:37.250Z,2
2023-03-20T00:19:20.660Z,2
2023-03-20T00:21:04.142Z,2
2023-03-20T00:22:47.426Z,2
2023-03-20T00:24:30.829Z,2
2023-03-20T00:26:14.215Z,2
2023-03-20T00:27:57.618Z,2
2023-03-20T00:29:41.015Z,2
2023-03-20T00:34:50.264Z,1
2023-03-20T00:36:33.654Z,0
2023-03-20T00:38:17.054Z,1
2023-03-20T00:40:00.469Z,1
2023-03-20T00:41:43.850Z,1
2023-03-20T00:43:27.266Z,1
2023-03-20T00:45:10.640Z,1
2023-03-20T00:46:54.044Z,1
2023-03-20T00:50:20.524Z,1
2023-03-20T00:52:03.913Z,1
2023-03-20T00:53:47.295Z,1
2023-03-20T00:55:30.705Z,2
2023-03-20T00:58:57.498Z,1
2023-03-20T01:00:40.893Z,1
2023-03-20T01:02:24.281Z,1
2023-03-20T01:07:33.532Z,1
2023-03-20T01:09:16.921Z,1
2023-03-20T01:11:00.314Z,1
2023-03-20T01:12:43.713Z,1
2023-03-20T01:14:27.116Z,1
2023-03-20T01:16:10.490Z,1
2023-03-20T01:17:53.961Z,1
2023-03-20T01:19:37.289Z,0
2023-03-20T01:24:46.544Z,0
2023-03-20T01:26:30.012Z,1
2023-03-20T01:28:13.356Z,2
2023-03-20T01:29:56.738Z,1
2023-03-20T01:31:40.126Z,2
2023-03-20T01:33:23.513Z,1
2023-03-20T01:35:06.930Z,1
2023-03-20T01:36:50.312Z,1
2023-03-20T01:41:59.550Z,1
2023-03-20T01:43:42.952Z,2
2023-03-20T01:45:26.347Z,1
2023-03-20T01:47:09.752Z,1
2023-03-20T01:48:53.150Z,1
2023-03-20T01:50:36.542Z,1
2023-03-20T01:52:19.955Z,1
2023-03-20T01:54:03.343Z,0
2023-03-20T01:57:29.808Z,2
2023-03-20T01:59:13.236Z,1
2023-03-20T02:00:56.618Z,2
2023-03-20T02:02:40.005Z,1
2023-03-20T02:04:23.413Z,1
2023-03-20T02:06:06.788Z,1
2023-03-20T02:07:50.183Z,1
2023-03-20T02:09:33.588Z,1
2023-03-20T02:13:00.075Z,1
2023-03-20T02:14:43.463Z,1
2023-03-20T02:16:26.854Z,2
2023-03-20T02:18:10.250Z,1
2023-03-20T02:19:53.644Z,0
2023-03-20T02:21:37.076Z,1
2023-03-20T02:23:20.429Z,1
2023-03-20T02:25:03.839Z,1
2023-03-20T02:28:30.312Z,1
2023-03-20T02:30:13.738Z,1
2023-03-20T02:31:57.089Z,1
2023-03-20T02:33:40.500Z,1
2023-03-20T02:35:23.892Z,1
2023-03-20T02:37:07.314Z,1
2023-03-20T02:38:50.692Z,1
2023-03-20T02:40:34.074Z,1
2023-03-20T02:45:43.387Z,1
2023-03-20T02:47:26.757Z,1
2023-03-20T02:49:10.147Z,1
2023-03-20T02:50:53.510Z,1
2023-03-20T02:52:36.902Z,1
2023-03-20T02:54:20.292Z,1
2023-03-20T02:56:03.693Z,1
2023-03-20T02:57:47.098Z,1
2023-03-20T03:01:13.562Z,1
2023-03-20T03:02:56.961Z,1
2023-03-20T03:04:40.426Z,1
2023-03-20T03:06:23.774Z,1
2023-03-20T03:08:07.338Z,1
2023-03-20T03:09:50.551Z,1
2023-03-20T03:11:33.949Z,1
2023-03-20T03:13:17.345Z,1
2023-03-20T03:18:26.583Z,1
2023-03-20T03:20:10.048Z,2
2023-03-20T03:21:53.386Z,1
2023-03-20T03:23:36.789Z,2
2023-03-20T03:25:20.162Z,1
2023-03-20T03:27:03.579Z,1
2023-03-20T03:28:46.973Z,1
2023-03-20T03:30:30.366Z,1
2023-03-20T03:33:56.851Z,1
2023-03-20T03:35:40.238Z,1
2023-03-20T03:37:23.650Z,1
2023-03-20T03:39:07.056Z,1
2023-03-20T03:40:50.427Z,2
2023-03-20T03:42:33.823Z,1
2023-03-20T03:44:17.213Z,0
2023-03-20T03:46:00.596Z,1
2023-03-20T03:51:09.846Z,1
2023-03-20T03:52:53.249Z,1
2023-03-20T03:54:36.646Z,1
2023-03-20T03:56:20.504Z,1
2023-03-20T03:58:03.447Z,1
2023-03-20T03:59:47.000Z,1
2023-03-20T04:01:30.220Z,1
2023-03-20T04:03:13.632Z,1
2023-03-20T04:04:57.019Z,1
2023-03-20T04:06:40.726Z,1
2023-03-20T04:08:24.127Z,1
2023-03-20T04:10:07.525Z,1
2023-03-20T04:11:50.976Z,1
2023-03-20T04:13:34.320Z,1
2023-03-20T04:15:17.704Z,1
2023-03-20T04:17:01.104Z,1
2023-03-20T04:18:44.515Z,1
2023-03-20T04:20:27.901Z,1
2023-03-20T04:22:11.601Z,1
2023-03-20T04:23:54.999Z,1
2023-03-20T04:25:38.390Z,1
2023-03-20T04:27:21.787Z,1
2023-03-20T04:29:05.181Z,1
2023-03-20T04:30:48.586Z,1
2023-03-20T04:32:31.991Z,0
2023-03-20T04:34:15.361Z,1
2023-03-20T04:35:58.769Z,2
2023-03-20T04:37:42.498Z,1
2023-03-20T04:39:25.874Z,1
2023-03-20T04:41:09.271Z,1
2023-03-20T04:42:52.644Z,1
2023-03-20T04:44:36.067Z,1
2023-03-20T04:46:19.452Z,1
2023-03-20T04:48:02.844Z,1
2023-03-20T04:49:46.271Z,1
2023-03-20T04:51:29.641Z,1
2023-03-20T04:53:13.352Z,1
2023-03-20T04:54:56.743Z,1
2023-03-20T04:56:40.132Z,1
2023-03-20T04:58:23.544Z,1
2023-03-20T05:00:06.947Z,1
2023-03-20T05:01:50.515Z,1
2023-03-20T05:03:33.746Z,1
2023-03-20T05:05:17.134Z,1
2023-03-20T05:07:00.514Z,2
2023-03-20T05:08:44.228Z,1
2023-03-20T05:10:27.613Z,1
2023-03-20T05:12:11.014Z,1
2023-03-20T05:13:54.413Z,1
2023-03-20T05:15:37.808Z,1
2023-03-20T05:17:21.198Z,1
2023-03-20T05:19:04.596Z,1
2023-03-20T05:20:47.992Z,0
2023-03-20T05:25:57.227Z,1
2023-03-20T05:27:40.631Z,0
2023-03-20T05:29:24.026Z,1
2023-03-20T05:31:07.427Z,1
2023-03-20T05:32:50.828Z,0
2023-03-20T05:34:34.207Z,1
2023-03-20T05:36:17.625Z,1
2023-03-20T05:38:01.045Z,1
2023-03-20T05:43:10.870Z,1
2023-03-20T05:44:54.352Z,1
2023-03-20T05:46:37.668Z,1
2023-03-20T05:48:21.061Z,1
2023-03-20T05:50:04.455Z,1
2023-03-20T05:51:47.856Z,1
2023-03-20T05:53:31.232Z,1
2023-03-20T05:56:57.740Z,1
2023-03-20T05:58:41.104Z,1
2023-03-20T06:00:24.536Z,2
2023-03-20T06:02:07.905Z,2
2023-03-20T06:03:51.325Z,1
2023-03-20T06:05:34.710Z,0
2023-03-20T06:07:18.090Z,1
2023-03-20T06:09:01.492Z,1
2023-03-20T06:12:27.968Z,1
2023-03-20T06:14:11.358Z,2
2023-03-20T06:15:54.763Z,1
2023-03-20T06:17:38.164Z,1
2023-03-20T06:19:21.602Z,1
2023-03-20T06:21:04.944Z,1
2023-03-20T06:22:48.334Z,1
2023-03-20T06:24:31.735Z,1
2023-03-20T06:27:58.274Z,1
2023-03-20T06:29:41.592Z,1
2023-03-20T06:31:25.011Z,2
2023-03-20T06:33:08.406Z,1
2023-03-20T06:34:51.785Z,1
2023-03-20T06:36:35.186Z,1
2023-03-20T06:38:18.588Z,1
2023-03-20T06:40:01.989Z,1
2023-03-20T06:41:45.694Z,1
2023-03-20T06:43:29.089Z,1
2023-03-20T06:45:12.472Z,1
2023-03-20T06:46:55.874Z,1
2023-03-20T06:48:39.273Z,1
2023-03-20T06:50:22.651Z,1
2023-03-20T06:52:06.059Z,1
2023-03-20T06:53:49.463Z,1
2023-03-20T06:57:15.931Z,2
2023-03-20T06:58:59.329Z,1
2023-03-20T07:00:42.713Z,1
2023-03-20T07:02:26.108Z,1
2023-03-20T07:04:09.497Z,1
2023-03-20T07:05:52.908Z,1
2023-03-20T07:07:36.379Z,2
2023-03-20T07:09:19.695Z,1
2023-03-20T07:12:46.189Z,2
2023-03-20T07:14:29.581Z,2
2023-03-20T07:16:12.968Z,2
2023-03-20T07:17:56.381Z,2
2023-03-20T07:19:39.873Z,1
2023-03-20T07:21:23.192Z,2
2023-03-20T07:23:06.556Z,2
2023-03-20T07:24:50.022Z,2
2023-03-20T07:29:59.249Z,2
2023-03-20T07:31:42.614Z,1
2023-03-20T07:33:25.983Z,1
2023-03-20T07:35:09.410Z,1
2023-03-20T07:36:52.776Z,1
2023-03-20T07:38:36.328Z,2
2023-03-20T07:40:19.573Z,1
2023-03-20T07:42:02.966Z,2
2023-03-20T07:47:12.217Z,1
2023-03-20T07:48:55.604Z,1
2023-03-20T07:50:39.054Z,109
2023-03-20T07:52:22.528Z,120
2023-03-20T07:54:05.785Z,137
2023-03-20T07:55:49.242Z,157
2023-03-20T07:57:32.628Z,241
2023-03-20T07:59:15.998Z,206
2023-03-20T08:02:42.525Z,232
2023-03-20T08:04:25.895Z,223
2023-03-20T08:06:09.307Z,207
2023-03-20T08:07:52.624Z,187
2023-03-20T08:09:36.076Z,189
2023-03-20T08:11:19.431Z,196
2023-03-20T08:13:02.847Z,213
2023-03-20T08:14:46.223Z,236
2023-03-20T08:16:29.606Z,253
2023-03-20T08:19:56.293Z,257
2023-03-20T08:21:39.504Z,233
2023-03-20T08:23:22.897Z,218
2023-03-20T08:25:06.273Z,228
2023-03-20T08:26:49.678Z,218
2023-03-20T08:28:33.064Z,209
2023-03-20T08:30:16.473Z,201
2023-03-20T08:31:59.874Z,202
2023-03-20T08:35:26.337Z,208
2023-03-20T08:37:09.834Z,216
2023-03-20T08:38:53.267Z,218
2023-03-20T08:40:36.568Z,207
2023-03-20T08:44:03.319Z,160
2023-03-20T08:45:46.826Z,156
2023-03-20T08:47:30.107Z,95
2023-03-20T08:50:56.583Z,130
2023-03-20T08:52:39.980Z,150
2023-03-20T08:54:23.409Z,156
2023-03-20T08:56:06.877Z,157
2023-03-20T08:57:50.185Z,160
2023-03-20T08:59:33.727Z,170
2023-03-20T09:01:17.013Z,176
2023-03-20T09:03:00.541Z,171
2023-03-20T09:06:27.008Z,165
2023-03-20T09:08:10.333Z,144
2023-03-20T09:09:53.670Z,125
2023-03-20T09:11:37.159Z,175
2023-03-20T09:13:20.467Z,131
2023-03-20T09:15:03.858Z,134
2023-03-20T09:16:47.264Z,145
2023-03-20T09:18:30.781Z,149
2023-03-20T09:20:14.400Z,158
2023-03-20T09:21:57.736Z,165
2023-03-20T09:23:41.198Z,171
2023-03-20T09:25:24.530Z,169
2023-03-20T09:27:07.933Z,160
2023-03-20T09:28:51.327Z,149
2023-03-20T09:30:34.733Z,141
2023-03-20T09:32:18.111Z,134
2023-03-20T09:37:27.328Z,108
2023-03-20T09:39:10.718Z,103
2023-03-20T09:40:54.144Z,95
2023-03-20T09:42:37.509Z,90
2023-03-20T09:44:20.933Z,87
2023-03-20T09:46:04.316Z,87
2023-03-20T09:47:47.693Z,93
2023-03-20T09:49:31.108Z,100
2023-03-20T09:54:40.346Z,105
2023-03-20T09:56:23.746Z,109
2023-03-20T09:58:07.131Z,113
2023-03-20T09:59:50.540Z,117
2023-03-20T10:01:33.937Z,122
2023-03-20T10:03:17.324Z,127
2023-03-20T10:05:00.742Z,131
2023-03-20T10:06:44.158Z,132
2023-03-20T10:10:10.741Z,129
2023-03-20T10:11:54.129Z,129
2023-03-20T10:13:37.386Z,128
2023-03-20T10:15:20.785Z,123
2023-03-20T10:17:04.164Z,117
2023-03-20T10:18:47.610Z,110
2023-03-20T10:20:30.974Z,104
2023-03-20T10:22:14.375Z,99
2023-03-20T10:27:23.637Z,81
2023-03-20T10:29:07.024Z,75
2023-03-20T10:30:50.417Z,65
2023-03-20T10:34:17.230Z,157
2023-03-20T10:36:00.597Z,55
2023-03-20T10:37:43.993Z,113
2023-03-20T10:39:27.382Z,50
2023-03-20T10:41:11.157Z,47
2023-03-20T10:42:54.475Z,44
2023-03-20T10:44:38.175Z,41
2023-03-20T10:46:21.315Z,39
2023-03-20T10:48:04.682Z,37
2023-03-20T10:49:48.094Z,37
2023-03-20T10:51:31.465Z,37
2023-03-20T10:53:14.871Z,38
2023-03-20T10:56:41.353Z,78
2023-03-20T10:58:24.725Z,83
2023-03-20T11:00:08.125Z,87
2023-03-20T11:01:51.509Z,97
2023-03-20T11:03:34.908Z,103
2023-03-20T11:05:18.316Z,112
2023-03-20T11:07:01.718Z,116
2023-03-20T11:08:45.100Z,130
2023-03-20T11:13:54.350Z,145
2023-03-20T11:15:37.752Z,152
2023-03-20T11:17:21.153Z,159
2023-03-20T11:19:04.556Z,151
2023-03-20T11:20:47.927Z,145
2023-03-20T11:22:31.341Z,140
2023-03-20T11:24:14.713Z,129
2023-03-20T11:25:58.125Z,121
2023-03-20T11:27:41.827Z,112
2023-03-20T11:29:25.310Z,110
2023-03-20T11:31:08.641Z,114
2023-03-20T11:32:52.025Z,118
2023-03-20T11:34:35.407Z,116
2023-03-20T11:36:18.805Z,109
2023-03-20T11:38:02.223Z,102
2023-03-20T11:39:45.670Z,101
2023-03-20T11:43:12.091Z,116
2023-03-20T11:44:55.476Z,117
2023-03-20T11:46:38.896Z,108
2023-03-20T11:48:22.270Z,108
2023-03-20T11:50:05.714Z,107
2023-03-20T11:51:49.057Z,107
2023-03-20T11:53:32.474Z,106
2023-03-20T11:55:15.904Z,110
2023-03-20T11:56:59.569Z,120
2023-03-20T11:58:42.948Z,125
2023-03-20T12:00:26.343Z,131
2023-03-20T12:02:09.741Z,144
2023-03-20T12:03:53.155Z,162
2023-03-20T12:05:36.549Z,191
2023-03-20T12:07:19.992Z,191
2023-03-20T12:09:03.399Z,199
2023-03-20T12:12:29.813Z,204
2023-03-20T12:14:13.209Z,202
2023-03-20T12:15:56.609Z,188
2023-03-20T12:17:39.993Z,168
2023-03-20T12:19:23.380Z,207
2023-03-20T12:21:06.785Z,192
2023-03-20T12:22:50.213Z,183
2023-03-20T12:24:33.584Z,181
2023-03-20T12:28:00.048Z,214
2023-03-20T12:29:43.445Z,216
2023-03-20T12:31:26.864Z,212
2023-03-20T12:33:10.236Z,202
2023-03-20T12:34:53.700Z,202
2023-03-20T12:36:37.045Z,250
2023-03-20T12:38:20.437Z,288
2023-03-20T12:40:03.830Z,326
2023-03-20T12:43:30.311Z,345
2023-03-20T12:45:13.701Z,351
2023-03-20T12:46:57.103Z,386
2023-03-20T12:48:40.496Z,427
2023-03-20T12:50:23.890Z,367
2023-03-20T12:52:07.286Z,331
2023-03-20T12:53:50.708Z,291
2023-03-20T12:58:59.923Z,220
2023-03-20T13:00:43.330Z,221
2023-03-20T13:02:26.716Z,228
2023-03-20T13:04:10.120Z,238
2023-03-20T13:05:53.504Z,252
2023-03-20T13:07:36.905Z,261
2023-03-20T13:09:20.305Z,283
2023-03-20T13:14:29.613Z,293
2023-03-20T13:16:12.934Z,303
2023-03-20T13:17:56.344Z,297
2023-03-20T13:19:39.738Z,287
2023-03-20T13:21:23.151Z,281
2023-03-20T13:23:06.591Z,286
2023-03-20T13:24:49.994Z,299
2023-03-20T13:26:33.407Z,296
2023-03-20T13:28:17.080Z,281
2023-03-20T13:30:00.565Z,249
2023-03-20T13:31:43.955Z,211
2023-03-20T13:33:27.303Z,187
2023-03-20T13:35:10.649Z,168
2023-03-20T13:36:54.054Z,159
2023-03-20T13:38:37.411Z,139
2023-03-20T13:40:20.818Z,161
2023-03-20T13:43:47.282Z,179
2023-03-20T13:45:30.672Z,152
2023-03-20T13:47:14.069Z,139
2023-03-20T13:48:57.534Z,130
2023-03-20T13:50:40.873Z,135
2023-03-20T13:52:24.273Z,133
2023-03-20T13:54:07.684Z,147
2023-03-20T13:55:51.082Z,161
2023-03-20T13:59:17.527Z,181
2023-03-20T14:01:00.950Z,232
2023-03-20T14:02:44.327Z,238
2023-03-20T14:04:27.714Z,225
2023-03-20T14:06:11.136Z,224
2023-03-20T14:07:54.505Z,252
2023-03-20T14:09:37.943Z,234
2023-03-20T14:11:21.319Z,215
2023-03-20T14:14:47.818Z,196
2023-03-20T14:16:31.192Z,188
2023-03-20T14:18:14.585Z,170
2023-03-20T14:19:57.981Z,162
2023-03-20T14:21:41.366Z,158
2023-03-20T14:23:24.780Z,149
2023-03-20T14:25:08.144Z,137
2023-03-20T14:26:51.526Z,124
2023-03-20T14:30:18.012Z,94
2023-03-20T14:32:01.418Z,86
2023-03-20T14:33:44.812Z,81
2023-03-20T14:35:28.219Z,79
2023-03-20T14:37:11.630Z,77
2023-03-20T14:38:55.038Z,75
2023-03-20T14:40:38.440Z,75
2023-03-20T14:47:31.065Z,92
2023-03-20T14:49:14.421Z,94
2023-03-20T14:50:57.908Z,94
2023-03-20T14:52:41.237Z,95
2023-03-20T14:54:24.645Z,103
2023-03-20T14:56:08.024Z,110
2023-03-20T14:57:51.438Z,119
2023-03-20T14:59:35.128Z,131
2023-03-20T15:01:18.510Z,144
2023-03-20T15:03:01.926Z,155
2023-03-20T15:04:45.349Z,161
2023-03-20T15:06:28.699Z,162
2023-03-20T15:08:12.104Z,160
2023-03-20T15:09:55.492Z,155
2023-03-20T15:11:38.925Z,151
2023-03-20T15:15:05.398Z,150
2023-03-20T15:16:48.767Z,154
2023-03-20T15:18:32.268Z,162
2023-03-20T15:20:15.552Z,170
2023-03-20T15:21:58.954Z,173
2023-03-20T15:23:42.376Z,175
2023-03-20T15:25:25.797Z,176
2023-03-20T15:27:09.150Z,172
2023-03-20T15:28:52.839Z,168
2023-03-20T15:30:36.233Z,163
2023-03-20T15:34:03.119Z,146
2023-03-20T15:35:46.444Z,138
2023-03-20T15:37:29.839Z,129
2023-03-20T15:39:13.257Z,126
2023-03-20T15:40:56.758Z,118
2023-03-20T15:44:23.089Z,92
2023-03-20T15:46:06.519Z,87
2023-03-20T15:47:49.991Z,79
2023-03-20T15:49:33.298Z,76
2023-03-20T15:51:16.696Z,75
2023-03-20T15:53:00.119Z,75
2023-03-20T15:54:43.481Z,79
2023-03-20T15:56:26.859Z,75
2023-03-20T15:59:53.344Z,65
2023-03-20T16:01:36.758Z,60
2023-03-20T16:03:20.130Z,66
2023-03-20T16:05:03.566Z,68
2023-03-20T16:06:46.960Z,49
2023-03-20T16:08:30.478Z,71
2023-03-20T16:10:13.749Z,84
2023-03-20T16:11:57.217Z,52
2023-03-20T16:17:06.461Z,59
2023-03-20T16:18:49.837Z,64
2023-03-20T16:20:33.222Z,66
2023-03-20T16:22:16.585Z,68
2023-03-20T16:24:00.042Z,67
2023-03-20T16:25:43.485Z,67
2023-03-20T16:27:26.772Z,68
2023-03-20T16:29:10.165Z,67
2023-03-20T16:32:36.637Z,67
2023-03-20T16:34:20.023Z,73
2023-03-20T16:36:03.431Z,79
2023-03-20T16:37:46.840Z,79
2023-03-20T16:39:30.222Z,85
2023-03-20T16:41:13.618Z,88
2023-03-20T16:42:57.105Z,91
2023-03-20T16:44:40.398Z,179
2023-03-20T16:48:06.884Z,103
2023-03-20T16:49:50.275Z,109
2023-03-20T16:51:33.666Z,117
2023-03-20T16:53:17.054Z,147
2023-03-20T16:55:00.522Z,101
2023-03-20T16:56:43.855Z,88
2023-03-20T16:58:27.258Z,76
2023-03-20T17:00:10.641Z,136
2023-03-20T17:03:37.114Z,41
2023-03-20T17:05:20.515Z,33
2023-03-20T17:07:03.916Z,29
2023-03-20T17:08:47.316Z,26
2023-03-20T17:10:30.720Z,23
2023-03-20T17:12:14.216Z,21
2023-03-20T17:13:57.494Z,21
2023-03-20T17:15:40.900Z,270
2023-03-20T17:19:07.359Z,254
2023-03-20T17:20:50.759Z,254
2023-03-20T17:22:34.163Z,260
2023-03-20T17:24:17.568Z,15
2023-03-20T17:26:00.941Z,17
2023-03-20T17:27:44.524Z,15
2023-03-20T17:29:27.835Z,15
2023-03-20T17:31:11.259Z,14
2023-03-20T17:34:37.614Z,13
2023-03-20T17:36:21.091Z,14
2023-03-20T17:38:04.400Z,14
2023-03-20T17:39:47.782Z,12
2023-03-20T17:41:31.233Z,12
2023-03-20T17:43:14.617Z,12
2023-03-20T17:44:57.982Z,11
2023-03-20T17:46:41.383Z,11
2023-03-20T17:50:07.865Z,10
2023-03-20T17:51:51.242Z,10
2023-03-20T17:53:34.643Z,10
2023-03-20T17:55:18.042Z,9
2023-03-20T17:57:01.451Z,9
2023-03-20T17:58:44.849Z,10
2023-03-20T18:00:28.229Z,10
2023-03-20T18:05:37.630Z,9
2023-03-20T18:07:20.968Z,10
2023-03-20T18:09:04.264Z,10
2023-03-20T18:10:47.796Z,10
2023-03-20T18:12:31.068Z,10
2023-03-20T18:14:14.519Z,10
2023-03-20T18:15:57.860Z,10
2023-03-20T18:17:41.263Z,10
2023-03-20T18:19:24.976Z,10
2023-03-20T18:21:08.358Z,9
2023-03-20T18:22:51.837Z,10
2023-03-20T18:24:35.305Z,11
2023-03-20T18:26:18.643Z,10
2023-03-20T18:28:01.940Z,10
2023-03-20T18:29:45.363Z,10
2023-03-20T18:31:28.730Z,10
2023-03-20T18:34:55.214Z,9
2023-03-20T18:36:38.597Z,9
2023-03-20T18:38:22.017Z,9
2023-03-20T18:40:05.413Z,9
2023-03-20T18:41:48.831Z,10
2023-03-20T18:43:32.188Z,10
2023-03-20T18:45:15.584Z,10
2023-03-20T18:46:58.983Z,9
2023-03-20T18:50:25.536Z,9
2023-03-20T18:52:08.848Z,10
2023-03-20T18:53:52.259Z,10
2023-03-20T18:55:35.647Z,10
2023-03-20T18:57:19.065Z,10
2023-03-20T18:59:02.436Z,10
2023-03-20T19:00:45.850Z,10
2023-03-20T19:02:29.240Z,10
2023-03-20T19:05:55.711Z,10
2023-03-20T19:07:39.101Z,10
2023-03-20T19:09:22.509Z,10
2023-03-20T19:11:05.894Z,10
2023-03-20T19:12:49.297Z,8
2023-03-20T19:14:32.699Z,9
2023-03-20T19:16:16.111Z,10
2023-03-20T19:17:59.487Z,10
2023-03-20T19:21:25.959Z,9
2023-03-20T19:23:09.363Z,10
2023-03-20T19:24:52.748Z,10
2023-03-20T19:26:36.139Z,10
2023-03-20T19:28:19.552Z,10
2023-03-20T19:30:02.941Z,10
2023-03-20T19:31:46.339Z,9
2023-03-20T19:33:29.737Z,9
2023-03-20T19:36:56.233Z,9
2023-03-20T19:38:39.666Z,10
2023-03-20T19:40:23.090Z,10
2023-03-20T19:42:06.395Z,10
2023-03-20T19:43:49.804Z,10
2023-03-20T19:45:33.194Z,10
2023-03-20T19:47:16.593Z,8
2023-03-20T19:48:59.995Z,8
2023-03-20T19:52:26.473Z,11
2023-03-20T19:54:09.880Z,9
2023-03-20T19:55:53.290Z,10
2023-03-20T19:57:36.663Z,10
2023-03-20T19:59:20.085Z,10
2023-03-20T20:01:03.649Z,9
2023-03-20T20:02:46.934Z,9
2023-03-20T20:07:56.085Z,10
2023-03-20T20:09:39.488Z,10
2023-03-20T20:11:22.878Z,10
2023-03-20T20:13:06.289Z,10
2023-03-20T20:14:49.668Z,10
2023-03-20T20:16:33.099Z,9
2023-03-20T20:18:16.592Z,9
2023-03-20T20:19:59.993Z,10
2023-03-20T20:21:43.578Z,7
2023-03-20T20:23:26.956Z,7
2023-03-20T20:25:10.385Z,9
2023-03-20T20:26:53.950Z,10
2023-03-20T20:28:37.141Z,10
2023-03-20T20:30:20.541Z,9
2023-03-20T20:32:03.933Z,9
2023-03-20T20:33:47.375Z,10
2023-03-20T20:35:31.050Z,8
2023-03-20T20:37:14.447Z,8
2023-03-20T20:38:57.846Z,9
2023-03-20T20:40:41.235Z,8
2023-03-20T20:42:24.630Z,576
2023-03-20T20:44:08.122Z,573
2023-03-20T20:45:51.495Z,570
2023-03-20T20:47:34.847Z,566
2023-03-20T20:52:44.080Z,561
2023-03-20T20:54:27.461Z,559
2023-03-20T20:56:10.874Z,9
2023-03-20T20:57:54.259Z,9
2023-03-20T20:59:37.656Z,8
2023-03-20T21:01:21.058Z,10
2023-03-20T21:03:04.450Z,9
2023-03-20T21:08:13.696Z,10
2023-03-20T21:09:57.092Z,10
2023-03-20T21:11:40.495Z,9
2023-03-20T21:13:23.910Z,9
2023-03-20T21:15:07.279Z,9
2023-03-20T21:16:50.684Z,9
2023-03-20T21:18:34.144Z,9
2023-03-20T21:23:43.305Z,9
2023-03-20T21:25:26.717Z,10
2023-03-20T21:27:10.123Z,9
2023-03-20T21:28:53.512Z,10
2023-03-20T21:30:36.906Z,9
2023-03-20T21:32:20.303Z,9
2023-03-20T21:34:03.703Z,9
2023-03-20T21:35:47.087Z,10
2023-03-20T21:37:30.795Z,10
2023-03-20T21:39:14.200Z,10
2023-03-20T21:40:57.608Z,10
2023-03-20T21:42:41.001Z,10
2023-03-20T21:44:24.382Z,10
2023-03-20T21:46:07.788Z,9
2023-03-20T21:47:51.173Z,9
2023-03-20T21:49:34.570Z,9
2023-03-20T21:53:01.057Z,10
2023-03-20T21:54:44.457Z,9
2023-03-20T21:56:27.841Z,9
2023-03-20T21:58:11.242Z,9
2023-03-20T21:59:54.634Z,9
2023-03-20T22:01:38.018Z,9
2023-03-20T22:03:21.437Z,9
2023-03-20T22:05:04.834Z,9
2023-03-20T22:08:31.332Z,9
2023-03-20T22:10:14.696Z,9
2023-03-20T22:11:58.094Z,9
2023-03-20T22:13:41.502Z,9
2023-03-20T22:15:24.886Z,10
2023-03-20T22:17:08.379Z,9
2023-03-20T22:18:51.684Z,9
2023-03-20T22:20:35.081Z,9
2023-03-20T22:24:01.558Z,9
2023-03-20T22:25:44.945Z,9
2023-03-20T22:27:28.384Z,9
2023-03-20T22:29:11.738Z,9
2023-03-20T22:30:55.158Z,8
2023-03-20T22:32:38.555Z,9
2023-03-20T22:34:21.976Z,9
2023-03-20T22:36:05.329Z,10
2023-03-20T22:39:31.813Z,9
2023-03-20T22:41:15.198Z,9
2023-03-20T22:42:58.605Z,9
2023-03-20T22:44:41.996Z,9
2023-03-20T22:46:25.383Z,9
2023-03-20T22:48:08.783Z,8
2023-03-20T22:49:52.192Z,9
2023-03-20T22:51:35.584Z,10
2023-03-20T22:55:02.052Z,10
2023-03-20T22:56:45.457Z,9
2023-03-20T22:58:28.857Z,9
2023-03-20T23:00:12.238Z,9
2023-03-20T23:01:55.650Z,9
2023-03-20T23:03:39.030Z,10
2023-03-20T23:05:22.441Z,9
2023-03-20T23:07:05.843Z,9
2023-03-20T23:10:32.319Z,9
2023-03-20T23:12:15.706Z,9
2023-03-20T23:13:59.134Z,9
2023-03-20T23:15:42.491Z,9
2023-03-20T23:17:25.887Z,9
2023-03-20T23:19:09.301Z,9
2023-03-20T23:20:52.683Z,9
2023-03-20T23:22:36.079Z,10
2023-03-20T23:26:02.560Z,9
2023-03-20T23:27:45.957Z,9
2023-03-20T23:29:29.351Z,9
2023-03-20T23:31:12.734Z,8
2023-03-20T23:32:56.138Z,9
2023-03-20T23:34:39.549Z,8
2023-03-20T23:36:22.963Z,9
2023-03-20T23:38:06.332Z,9
2023-03-20T23:39:50.044Z,9
2023-03-20T23:41:33.441Z,9
2023-03-20T23:43:16.851Z,9
2023-03-20T23:45:00.231Z,9
2023-03-20T23:46:43.669Z,9
2023-03-20T23:48:27.052Z,9
2023-03-20T23:50:10.499Z,9
2023-03-20T23:51:53.961Z,9
2023-03-20T23:57:03.188Z,10
2023-03-20T23:58:46.588Z,8
